createdAt,value
2018-05-03T00:01:59.312Z,79.30
2018-05-03T00:04:26.981Z,80.00
2018-05-03T00:06:54.594Z,80.30
2018-05-03T00:09:22.486Z,79.10
2018-05-03T00:11:50.122Z,80.00
2018-05-03T00:14:17.744Z,80.70
2018-05-03T00:16:45.399Z,82.60
2018-05-03T00:19:13.182Z,80.70
2018-05-03T00:21:40.832Z,82.30
2018-05-03T00:24:08.483Z,81.60
2018-05-03T00:26:36.141Z,82.40
2018-05-03T00:29:04.634Z,80.90
2018-05-03T00:31:32.254Z,83.50
2018-05-03T00:34:00.635Z,82.10
2018-05-03T00:36:29.068Z,83.20
2018-05-03T00:38:56.730Z,83.70
2018-05-03T00:41:24.381Z,83.90
2018-05-03T00:43:52.042Z,83.60
2018-05-03T00:46:19.699Z,83.90
2018-05-03T00:48:47.302Z,85.10
2018-05-03T00:51:14.917Z,85.60
2018-05-03T00:53:42.768Z,86.00
2018-05-03T00:56:10.460Z,91.50
2018-05-03T00:58:38.122Z,90.10
2018-05-03T01:01:05.739Z,90.40
2018-05-03T01:03:33.398Z,90.70
2018-05-03T01:06:01.002Z,91.50
2018-05-03T01:08:28.611Z,90.90
2018-05-03T01:10:56.256Z,91.00
2018-05-03T01:13:23.908Z,91.10
2018-05-03T01:15:52.327Z,91.50
2018-05-03T01:18:20.000Z,91.50
2018-05-03T01:20:47.608Z,92.00
2018-05-03T01:23:15.980Z,92.70
2018-05-03T01:25:44.014Z,92.70
2018-05-03T01:28:11.719Z,93.40
2018-05-03T01:30:40.364Z,95.40
2018-05-03T01:33:07.971Z,95.40
2018-05-03T01:35:47.344Z,96.00
2018-05-03T01:38:14.951Z,97.30
2018-05-03T01:40:42.602Z,99.10
2018-05-03T01:43:10.211Z,99.00
2018-05-03T01:45:37.831Z,99.60
2018-05-03T01:48:06.098Z,99.90
2018-05-03T01:50:33.708Z,99.70
2018-05-03T01:53:01.361Z,99.90
2018-05-03T01:55:29.019Z,99.90
2018-05-03T01:57:56.682Z,99.90
2018-05-03T02:00:24.287Z,99.90
2018-05-03T02:02:52.132Z,99.90
2018-05-03T02:05:19.743Z,99.90
2018-05-03T02:07:47.854Z,99.90
2018-05-03T02:10:15.512Z,99.90
2018-05-03T02:12:43.119Z,99.90
2018-05-03T02:15:11.550Z,99.90
2018-05-03T02:17:39.160Z,99.90
2018-05-03T02:20:06.779Z,99.90
2018-05-03T02:22:34.430Z,99.90
2018-05-03T02:25:02.097Z,99.90
2018-05-03T02:27:29.708Z,99.90
2018-05-03T02:29:58.686Z,99.90
2018-05-03T02:32:27.339Z,99.90
2018-05-03T02:34:55.111Z,99.90
2018-05-03T02:37:22.952Z,99.90
2018-05-03T02:39:50.608Z,99.90
2018-05-03T02:42:18.391Z,99.90
2018-05-03T02:44:46.159Z,99.90
2018-05-03T02:47:13.813Z,99.90
2018-05-03T02:49:41.539Z,99.90
2018-05-03T02:52:09.154Z,99.90
2018-05-03T02:54:36.800Z,99.90
2018-05-03T02:57:16.268Z,99.90
2018-05-03T02:59:55.769Z,99.90
2018-05-03T03:02:29.113Z,99.90
2018-05-03T03:05:14.158Z,99.90
2018-05-03T03:25:24.758Z,99.90
2018-05-03T03:28:10.082Z,99.90
2018-05-03T03:30:55.323Z,99.90
2018-05-03T03:33:34.762Z,99.90
2018-05-03T03:36:14.131Z,99.90
2018-05-03T03:38:53.480Z,99.90
2018-05-03T03:41:32.812Z,99.90
2018-05-03T03:44:12.191Z,99.90
2018-05-03T03:46:39.852Z,99.90
2018-05-03T03:49:07.499Z,99.90
2018-05-03T03:51:35.164Z,99.90
2018-05-03T03:54:02.775Z,99.90
2018-05-03T03:56:30.428Z,99.90
2018-05-03T03:58:58.036Z,99.90
2018-05-03T04:01:26.250Z,99.90
2018-05-03T04:03:53.925Z,99.90
2018-05-03T04:06:21.695Z,99.90
2018-05-03T04:08:49.354Z,99.90
2018-05-03T04:11:17.121Z,99.90
2018-05-03T04:13:44.976Z,99.90
2018-05-03T04:16:12.631Z,99.90
2018-05-03T04:18:51.983Z,99.90
2018-05-03T04:21:31.529Z,99.90
2018-05-03T04:24:10.953Z,99.90
2018-05-03T04:26:38.576Z,99.90
2018-05-03T04:29:06.226Z,99.90
2018-05-03T04:31:33.883Z,99.90
2018-05-03T04:34:02.272Z,99.90
2018-05-03T04:36:31.318Z,99.90
2018-05-03T04:38:59.810Z,99.90
2018-05-03T04:41:27.475Z,99.90
2018-05-03T04:43:56.355Z,99.90
2018-05-03T04:46:23.972Z,99.90
2018-05-03T04:48:51.639Z,99.90
2018-05-03T04:51:19.336Z,99.90
2018-05-03T04:53:46.952Z,99.90
2018-05-03T04:56:15.149Z,99.90
2018-05-03T04:58:42.814Z,99.90
2018-05-03T05:01:11.385Z,99.90
2018-05-03T05:03:39.942Z,99.90
2018-05-03T05:06:07.575Z,99.90
2018-05-03T05:08:36.472Z,99.90
2018-05-03T05:11:05.867Z,98.20
2018-05-03T05:13:33.488Z,98.10
2018-05-03T05:16:01.453Z,96.30
2018-05-03T05:18:31.164Z,96.00
2018-05-03T05:20:59.123Z,96.20
2018-05-03T05:23:26.874Z,96.90
2018-05-03T05:25:54.829Z,98.10
2018-05-03T05:28:23.070Z,99.70
2018-05-03T05:30:52.360Z,99.60
2018-05-03T05:33:20.336Z,99.50
2018-05-03T05:35:49.105Z,99.80
2018-05-03T05:38:17.547Z,99.40
2018-05-03T05:40:45.987Z,99.40
2018-05-03T05:43:15.660Z,99.50
2018-05-03T05:45:44.156Z,99.90
2018-05-03T05:48:12.891Z,98.90
2018-05-03T05:50:40.506Z,99.30
2018-05-03T05:53:08.804Z,98.60
2018-05-03T05:55:38.478Z,97.70
2018-05-03T05:58:06.776Z,98.00
2018-05-03T06:00:34.436Z,95.50
2018-05-03T06:03:02.780Z,97.10
2018-05-03T06:05:30.460Z,96.70
2018-05-03T06:08:00.004Z,94.90
2018-05-03T06:10:27.755Z,92.40
2018-05-03T06:12:55.540Z,88.70
2018-05-03T06:15:23.441Z,90.10
2018-05-03T06:17:51.854Z,88.30
2018-05-03T06:20:19.519Z,88.10
2018-05-03T06:22:47.187Z,88.90
2018-05-03T06:25:14.835Z,84.20
2018-05-03T06:27:42.482Z,86.60
2018-05-03T06:30:10.431Z,84.60
2018-05-03T06:32:41.961Z,88.50
2018-05-03T06:35:12.640Z,85.70
2018-05-03T06:37:42.640Z,85.80
2018-05-03T06:40:10.288Z,83.80
2018-05-03T06:42:37.959Z,90.50
2018-05-03T06:45:05.889Z,90.00
2018-05-03T06:47:34.875Z,86.10
2018-05-03T06:50:02.655Z,87.70
2018-05-03T06:52:33.475Z,81.50
2018-05-03T06:55:01.239Z,85.10
2018-05-03T06:57:30.465Z,82.40
2018-05-03T06:59:58.126Z,82.50
2018-05-03T07:02:26.626Z,87.10
2018-05-03T07:04:55.807Z,86.30
2018-05-03T07:07:25.692Z,83.90
2018-05-03T07:09:53.449Z,82.90
2018-05-03T07:12:21.050Z,79.20
2018-05-03T07:14:48.665Z,83.90
2018-05-03T07:17:16.279Z,81.40
2018-05-03T07:19:44.140Z,81.80
2018-05-03T07:22:11.827Z,80.30
2018-05-03T07:24:39.444Z,72.30
2018-05-03T07:27:07.066Z,67.70
2018-05-03T07:29:34.728Z,69.00
2018-05-03T07:32:04.480Z,67.50
2018-05-03T07:34:32.281Z,67.50
2018-05-03T07:36:59.959Z,62.10
2018-05-03T07:39:27.564Z,52.20
2018-05-03T07:41:55.484Z,55.10
2018-05-03T07:44:23.135Z,55.30
2018-05-03T07:46:50.792Z,55.20
2018-05-03T07:49:18.448Z,54.80
2018-05-03T07:51:46.060Z,49.20
2018-05-03T07:54:13.718Z,51.30
2018-05-03T07:56:42.511Z,52.10
2018-05-03T07:59:10.876Z,49.20
2018-05-03T08:01:38.902Z,49.50
2018-05-03T08:04:06.567Z,52.30
2018-05-03T08:06:34.239Z,52.20
2018-05-03T08:09:01.851Z,49.90
2018-05-03T08:11:29.559Z,45.20
2018-05-03T08:13:57.223Z,42.30
2018-05-03T08:16:24.888Z,40.60
2018-05-03T08:18:52.595Z,43.90
2018-05-03T08:21:20.807Z,41.50
2018-05-03T08:23:48.423Z,38.40
2018-05-03T08:26:16.088Z,41.60
2018-05-03T08:28:43.707Z,38.60
2018-05-03T08:31:11.376Z,39.10
2018-05-03T08:33:39.768Z,38.30
2018-05-03T08:36:08.157Z,37.90
2018-05-03T08:38:36.624Z,38.00
2018-05-03T08:41:04.250Z,38.70
2018-05-03T08:43:31.910Z,40.20
2018-05-03T08:45:59.543Z,37.60
2018-05-03T08:48:27.204Z,37.10
2018-05-03T08:50:54.828Z,36.20
2018-05-03T08:53:22.495Z,39.40
2018-05-03T08:55:50.999Z,36.30
2018-05-03T08:58:18.569Z,36.20
2018-05-03T09:00:46.259Z,37.00
2018-05-03T09:03:13.939Z,34.70
2018-05-03T09:05:41.657Z,36.00
2018-05-03T09:08:09.854Z,30.50
2018-05-03T09:10:37.512Z,29.00
2018-05-03T09:13:06.091Z,30.90
2018-05-03T09:15:33.939Z,30.50
2018-05-03T09:18:01.597Z,30.00
2018-05-03T09:20:29.258Z,29.00
2018-05-03T09:22:56.921Z,30.70
2018-05-03T09:25:25.189Z,29.30
2018-05-03T09:27:52.967Z,30.40
2018-05-03T09:30:20.635Z,27.20
2018-05-03T09:32:48.268Z,29.20
2018-05-03T09:35:15.883Z,28.10
2018-05-03T09:37:43.548Z,26.70
2018-05-03T09:40:11.213Z,27.30
2018-05-03T09:42:39.643Z,25.90
2018-05-03T09:45:07.326Z,25.70
2018-05-03T09:47:34.992Z,27.80
2018-05-03T09:50:02.604Z,27.80
2018-05-03T09:52:30.730Z,26.70
2018-05-03T09:54:58.756Z,26.20
2018-05-03T09:57:26.396Z,27.10
2018-05-03T09:59:54.058Z,26.00
2018-05-03T10:02:21.757Z,26.90
2018-05-03T10:04:49.561Z,24.40
2018-05-03T10:07:17.203Z,24.80
2018-05-03T10:09:45.588Z,23.70
2018-05-03T10:12:14.033Z,24.90
2018-05-03T10:14:41.672Z,25.00
2018-05-03T10:17:09.378Z,25.90
2018-05-03T10:19:36.995Z,27.00
2018-05-03T10:22:04.678Z,24.80
2018-05-03T10:24:32.332Z,23.20
2018-05-03T10:26:59.991Z,26.20
2018-05-03T10:29:27.647Z,25.00
2018-05-03T10:31:55.252Z,24.00
2018-05-03T10:34:22.899Z,25.30
2018-05-03T10:36:50.518Z,25.90
2018-05-03T10:39:18.132Z,25.20
2018-05-03T10:41:46.565Z,27.40
2018-05-03T10:44:14.230Z,27.70
2018-05-03T10:46:41.919Z,26.10
2018-05-03T10:49:09.601Z,26.10
2018-05-03T10:51:37.321Z,28.30
2018-05-03T10:54:06.000Z,26.90
2018-05-03T10:56:35.207Z,27.80
2018-05-03T10:59:02.822Z,27.50
2018-05-03T11:01:30.431Z,25.70
2018-05-03T11:03:58.088Z,24.60
2018-05-03T11:06:25.700Z,22.00
2018-05-03T11:08:53.353Z,22.20
2018-05-03T11:11:20.966Z,22.70
2018-05-03T11:13:48.618Z,22.30
2018-05-03T11:16:17.209Z,24.40
2018-05-03T11:18:44.856Z,24.50
2018-05-03T11:21:12.466Z,21.00
2018-05-03T11:23:40.135Z,23.90
2018-05-03T11:26:07.759Z,22.50
2018-05-03T11:28:35.420Z,19.00
2018-05-03T11:31:03.853Z,21.90
2018-05-03T11:33:31.523Z,21.00
2018-05-03T11:35:59.177Z,24.50
2018-05-03T11:38:26.788Z,22.90
2018-05-03T11:40:55.208Z,24.80
2018-05-03T11:43:22.855Z,24.60
2018-05-03T11:45:50.512Z,24.90
2018-05-03T11:48:18.155Z,23.40
2018-05-03T11:50:46.530Z,25.50
2018-05-03T11:53:14.195Z,24.90
2018-05-03T11:55:41.852Z,23.00
2018-05-03T11:58:12.040Z,25.80
2018-05-03T12:00:39.675Z,25.70
2018-05-03T12:03:07.513Z,24.00
2018-05-03T12:05:35.133Z,24.30
2018-05-03T12:08:02.811Z,24.90
2018-05-03T12:10:30.433Z,26.70
2018-05-03T12:12:58.090Z,22.80
2018-05-03T12:15:25.723Z,24.50
2018-05-03T12:17:53.428Z,24.90
2018-05-03T12:20:21.040Z,23.90
2018-05-03T12:22:48.695Z,25.20
2018-05-03T12:25:16.312Z,23.30
2018-05-03T12:27:43.972Z,25.90
2018-05-03T12:30:11.583Z,23.40
2018-05-03T12:32:39.208Z,24.80
2018-05-03T12:35:07.480Z,24.00
2018-05-03T12:37:37.923Z,24.10
2018-05-03T12:40:05.587Z,23.70
2018-05-03T12:42:33.204Z,23.70
2018-05-03T12:45:00.887Z,22.50
2018-05-03T12:47:29.260Z,24.90
2018-05-03T12:49:57.647Z,22.80
2018-05-03T12:52:26.069Z,22.90
2018-05-03T12:54:53.837Z,22.60
2018-05-03T12:57:21.488Z,22.60
2018-05-03T12:59:49.095Z,24.40
2018-05-03T13:02:16.751Z,21.60
2018-05-03T13:04:44.369Z,18.10
2018-05-03T13:07:12.082Z,20.90
2018-05-03T13:09:39.739Z,21.10
2018-05-03T13:12:07.483Z,19.20
2018-05-03T13:14:35.099Z,18.50
2018-05-03T13:17:02.763Z,18.20
2018-05-03T13:19:31.008Z,18.50
2018-05-03T13:21:58.921Z,19.10
2018-05-03T13:24:26.566Z,16.10
2018-05-03T13:26:54.184Z,16.60
2018-05-03T13:29:21.854Z,19.20
2018-05-03T13:31:49.513Z,15.30
2018-05-03T13:34:17.120Z,15.60
2018-05-03T13:36:44.774Z,16.90
2018-05-03T13:39:12.432Z,18.10
2018-05-03T13:41:40.105Z,16.50
2018-05-03T13:44:07.764Z,18.20
2018-05-03T13:46:35.371Z,16.00
2018-05-03T13:49:03.747Z,16.80
2018-05-03T13:51:31.406Z,17.60
2018-05-03T13:53:59.785Z,15.80
2018-05-03T13:56:28.222Z,16.90
2018-05-03T13:58:55.833Z,16.10
2018-05-03T14:01:23.502Z,17.60
2018-05-03T14:03:51.111Z,16.00
2018-05-03T14:06:18.724Z,16.50
2018-05-03T14:08:46.376Z,17.70
2018-05-03T14:11:14.000Z,20.30
2018-05-03T14:13:41.653Z,19.50
2018-05-03T14:16:09.307Z,19.60
2018-05-03T14:18:36.923Z,18.20
2018-05-03T14:21:04.593Z,16.90
2018-05-03T14:23:32.234Z,17.70
2018-05-03T14:26:00.141Z,17.60
2018-05-03T14:28:27.757Z,16.10
2018-05-03T14:30:55.437Z,16.70
2018-05-03T14:33:23.047Z,18.30
2018-05-03T14:35:50.707Z,17.70
2018-05-03T14:38:18.359Z,18.10
2018-05-03T14:40:46.010Z,16.40
2018-05-03T14:43:13.652Z,16.80
2018-05-03T14:45:41.871Z,17.20
2018-05-03T14:48:09.490Z,19.00
2018-05-03T14:50:37.141Z,19.80
2018-05-03T14:53:04.804Z,20.20
2018-05-03T14:55:32.472Z,17.60
2018-05-03T14:58:01.095Z,18.70
2018-05-03T15:00:30.242Z,19.20
2018-05-03T15:02:57.887Z,18.90
2018-05-03T15:05:25.540Z,18.80
2018-05-03T15:07:53.334Z,20.30
2018-05-03T15:10:21.123Z,21.00
2018-05-03T15:12:48.785Z,20.20
2018-05-03T15:15:17.287Z,20.30
2018-05-03T15:17:44.939Z,21.80
2018-05-03T15:20:14.282Z,20.50
2018-05-03T15:22:41.907Z,21.10
2018-05-03T15:25:09.613Z,19.90
2018-05-03T15:27:37.231Z,21.20
2018-05-03T15:30:05.657Z,21.10
2018-05-03T15:32:33.268Z,20.80
2018-05-03T15:35:01.098Z,20.00
2018-05-03T15:37:28.760Z,22.20
2018-05-03T15:39:56.417Z,20.20
2018-05-03T15:42:24.629Z,21.50
2018-05-03T15:44:52.275Z,20.10
2018-05-03T15:47:20.684Z,21.60
2018-05-03T15:49:48.312Z,21.10
2018-05-03T15:52:16.003Z,22.70
2018-05-03T15:54:43.616Z,23.20
2018-05-03T15:57:11.267Z,22.20
2018-05-03T15:59:38.894Z,24.50
2018-05-03T16:02:06.552Z,23.70
2018-05-03T16:04:34.172Z,24.90
2018-05-03T16:07:01.827Z,25.80
2018-05-03T16:09:29.479Z,24.70
2018-05-03T16:11:57.093Z,23.70
2018-05-03T16:14:24.735Z,23.50
2018-05-03T16:16:52.382Z,23.30
2018-05-03T16:19:20.003Z,24.60
2018-05-03T16:21:48.253Z,25.10
2018-05-03T16:24:15.972Z,24.70
2018-05-03T16:26:43.896Z,24.20
2018-05-03T16:29:11.532Z,24.60
2018-05-03T16:31:39.196Z,24.60
2018-05-03T16:34:06.843Z,26.70
2018-05-03T16:36:35.075Z,27.10
2018-05-03T16:39:02.748Z,24.70
2018-05-03T16:41:31.600Z,27.40
2018-05-03T16:43:59.247Z,27.70
2018-05-03T16:46:26.922Z,26.50
2018-05-03T16:48:54.577Z,25.90
2018-05-03T16:51:22.187Z,26.60
2018-05-03T16:53:49.848Z,26.90
2018-05-03T16:56:18.251Z,27.10
2018-05-03T16:58:45.863Z,26.30
2018-05-03T17:01:13.517Z,28.30
2018-05-03T17:03:41.913Z,26.70
2018-05-03T17:06:09.563Z,26.90
2018-05-03T17:08:37.244Z,27.20
2018-05-03T17:11:04.902Z,28.00
2018-05-03T17:13:32.528Z,26.10
2018-05-03T17:16:00.148Z,26.80
2018-05-03T17:18:27.799Z,26.80
2018-05-03T17:20:55.453Z,27.00
2018-05-03T17:23:23.111Z,27.70
2018-05-03T17:25:50.820Z,27.70
2018-05-03T17:28:18.435Z,27.50
2018-05-03T17:30:46.075Z,27.90
2018-05-03T17:33:14.636Z,27.80
2018-05-03T17:35:42.258Z,27.70
2018-05-03T17:38:11.950Z,27.90
2018-05-03T17:40:39.575Z,28.90
2018-05-03T17:43:07.236Z,28.60
2018-05-03T17:45:34.892Z,29.80
2018-05-03T17:48:02.508Z,30.70
2018-05-03T17:50:30.154Z,30.10
2018-05-03T17:52:57.814Z,30.00
2018-05-03T17:55:25.477Z,30.40
2018-05-03T17:57:53.831Z,29.40
2018-05-03T18:00:21.474Z,30.70
2018-05-03T18:02:49.087Z,29.80
2018-05-03T18:05:16.748Z,29.50
2018-05-03T18:07:44.367Z,30.00
2018-05-03T18:10:12.039Z,30.70
2018-05-03T18:12:40.464Z,31.60
2018-05-03T18:15:08.226Z,31.60
2018-05-03T18:17:35.906Z,30.90
2018-05-03T18:20:03.531Z,32.60
2018-05-03T18:22:31.191Z,34.00
2018-05-03T18:24:58.809Z,33.70
2018-05-03T18:27:26.472Z,33.60
2018-05-03T18:29:54.084Z,32.60
2018-05-03T18:32:22.400Z,32.60
2018-05-03T18:34:50.249Z,33.90
2018-05-03T18:37:17.907Z,31.70
2018-05-03T18:39:45.569Z,32.50
2018-05-03T18:42:14.451Z,32.70
2018-05-03T18:44:42.060Z,31.50
2018-05-03T18:47:09.937Z,34.90
2018-05-03T18:49:37.592Z,33.10
2018-05-03T18:52:05.352Z,35.40
2018-05-03T18:54:33.049Z,35.80
2018-05-03T18:57:00.705Z,37.00
2018-05-03T18:59:28.358Z,37.30
2018-05-03T19:01:55.972Z,36.40
2018-05-03T19:04:24.439Z,38.80
2018-05-03T19:06:52.788Z,38.70
2018-05-03T19:09:20.401Z,38.80
2018-05-03T19:11:49.414Z,40.20
2018-05-03T19:14:17.111Z,40.40
2018-05-03T19:16:44.763Z,41.80
2018-05-03T19:19:12.380Z,41.20
2018-05-03T19:21:40.024Z,42.20
2018-05-03T19:24:07.640Z,42.80
2018-05-03T19:26:35.297Z,41.90
2018-05-03T19:29:02.968Z,42.20
2018-05-03T19:31:30.625Z,43.80
2018-05-03T19:33:59.199Z,43.90
2018-05-03T19:36:26.847Z,45.20
2018-05-03T19:38:54.481Z,43.50
2018-05-03T19:41:22.184Z,44.10
2018-05-03T19:43:49.805Z,46.40
2018-05-03T19:46:18.383Z,46.20
2018-05-03T19:48:45.994Z,45.80
2018-05-03T19:51:13.704Z,46.10
2018-05-03T19:53:41.710Z,47.60
2018-05-03T19:56:09.320Z,47.40
2018-05-03T19:58:37.369Z,47.10
2018-05-03T20:01:05.235Z,48.40
2018-05-03T20:03:32.906Z,47.80
2018-05-03T20:06:00.523Z,46.60
2018-05-03T20:08:28.282Z,47.00
2018-05-03T20:10:56.647Z,49.80
2018-05-03T20:13:24.262Z,50.40
2018-05-03T20:15:52.097Z,50.20
2018-05-03T20:18:19.872Z,51.10
2018-05-03T20:20:47.543Z,50.90
2018-05-03T20:23:16.920Z,52.40
2018-05-03T20:25:44.523Z,52.50
2018-05-03T20:28:14.044Z,53.90
2018-05-03T20:30:41.655Z,54.60
2018-05-03T20:33:09.549Z,54.80
2018-05-03T20:35:37.919Z,56.60
2018-05-03T20:38:07.611Z,56.30
2018-05-03T20:40:35.237Z,56.70
2018-05-03T20:43:02.839Z,56.10
2018-05-03T20:45:30.490Z,57.90
2018-05-03T20:47:58.148Z,58.70
2018-05-03T20:50:25.856Z,60.10
2018-05-03T20:52:53.547Z,61.30
2018-05-03T20:55:21.159Z,61.80
2018-05-03T20:57:48.992Z,63.30
2018-05-03T21:00:17.396Z,64.10
2018-05-03T21:02:45.042Z,63.00
2018-05-03T21:05:14.382Z,65.80
2018-05-03T21:07:42.023Z,65.60
2018-05-03T21:10:09.640Z,67.50
2018-05-03T21:12:37.363Z,67.80
2018-05-03T21:15:04.955Z,72.70
2018-05-03T21:17:32.611Z,75.70
2018-05-03T21:20:00.224Z,79.10
2018-05-03T21:22:27.882Z,80.80
2018-05-03T21:24:55.681Z,80.90
2018-05-03T21:27:23.300Z,82.00
2018-05-03T21:29:50.944Z,82.50
2018-05-03T21:32:18.548Z,85.40
2018-05-03T21:34:46.199Z,85.10
2018-05-03T21:37:14.269Z,88.80
2018-05-03T21:39:41.931Z,93.70
2018-05-03T21:44:30.743Z,95.70
2018-05-03T21:46:58.351Z,96.00
2018-05-03T21:49:26.008Z,96.40
2018-05-03T21:51:54.384Z,96.40
2018-05-03T21:54:22.031Z,96.50
2018-05-03T21:56:49.863Z,97.00
2018-05-03T21:59:17.534Z,97.10
2018-05-03T22:01:45.766Z,97.60
2018-05-03T22:04:13.384Z,97.90
2018-05-03T22:06:41.224Z,98.60
2018-05-03T22:09:09.192Z,98.80
2018-05-03T22:11:36.879Z,99.70
2018-05-03T22:14:04.510Z,99.90
2018-05-03T22:16:32.155Z,99.90
2018-05-03T22:18:59.763Z,99.90
2018-05-03T22:21:28.778Z,99.90
2018-05-03T22:23:56.384Z,99.90
2018-05-03T22:26:24.032Z,99.90
2018-05-03T22:28:51.651Z,99.90
2018-05-03T22:31:19.307Z,99.90
2018-05-03T22:33:46.911Z,99.90
2018-05-03T22:36:14.552Z,99.90
2018-05-03T22:38:42.199Z,99.90
2018-05-03T22:41:09.807Z,99.90
2018-05-03T22:43:37.634Z,99.90
2018-05-03T22:46:05.257Z,99.90
2018-05-03T22:48:33.686Z,99.90
2018-05-03T22:51:01.556Z,99.90
2018-05-03T22:53:29.199Z,99.90
2018-05-03T22:55:56.815Z,99.90
2018-05-03T22:58:25.231Z,99.90
2018-05-03T23:00:52.839Z,99.90
2018-05-03T23:03:20.487Z,99.90
2018-05-03T23:05:48.095Z,99.90
2018-05-03T23:08:15.737Z,99.90
2018-05-03T23:10:43.381Z,99.90
2018-05-03T23:13:11.759Z,99.90
2018-05-03T23:15:40.171Z,99.90
2018-05-03T23:18:10.724Z,99.90
2018-05-03T23:20:38.367Z,99.90
2018-05-03T23:23:06.068Z,99.90
2018-05-03T23:25:34.172Z,99.90
2018-05-03T23:28:02.888Z,99.90
2018-05-03T23:30:30.520Z,99.90
2018-05-03T23:32:58.177Z,99.90
2018-05-03T23:35:26.580Z,99.90
2018-05-03T23:37:54.220Z,99.90
2018-05-03T23:40:22.600Z,99.90
2018-05-03T23:42:51.025Z,99.90
2018-05-03T23:45:18.890Z,99.90
2018-05-03T23:47:46.531Z,99.90
2018-05-03T23:50:14.309Z,99.90
2018-05-03T23:52:41.949Z,99.90
2018-05-03T23:55:09.567Z,99.90
2018-05-03T23:57:37.967Z,99.90
